createdAt,value
2018-08-03T00:01:09.937Z,4.10
2018-08-03T00:03:38.060Z,4.77
2018-08-03T00:06:06.421Z,4.20
2018-08-03T00:08:34.877Z,4.20
2018-08-03T00:11:03.258Z,4.47
2018-08-03T00:13:31.668Z,4.70
2018-08-03T00:16:00.131Z,4.10
2018-08-03T00:18:28.546Z,4.47
2018-08-03T00:20:56.981Z,4.37
2018-08-03T00:23:25.081Z,4.40
2018-08-03T00:25:53.437Z,4.40
2018-08-03T00:28:21.552Z,4.40
2018-08-03T00:30:49.898Z,4.37
2018-08-03T00:33:18.249Z,4.97
2018-08-03T00:35:46.712Z,4.40
2018-08-03T00:38:15.109Z,4.07
2018-08-03T00:40:43.474Z,4.10
2018-08-03T00:43:11.852Z,4.07
2018-08-03T00:45:40.197Z,4.13
2018-08-03T00:48:09.229Z,4.47
2018-08-03T00:50:37.643Z,4.33
2018-08-03T00:53:06.106Z,4.73
2018-08-03T00:55:34.518Z,4.00
2018-08-03T00:58:02.912Z,3.90
2018-08-03T01:00:31.329Z,4.00
2018-08-03T01:02:59.762Z,4.00
2018-08-03T01:05:28.170Z,3.20
2018-08-03T01:07:56.521Z,3.70
2018-08-03T01:10:24.892Z,3.57
2018-08-03T01:12:53.302Z,3.80
2018-08-03T01:15:21.713Z,3.60
2018-08-03T01:17:50.197Z,3.60
2018-08-03T01:20:18.641Z,3.50
2018-08-03T01:22:47.078Z,3.60
2018-08-03T01:25:15.500Z,4.20
2018-08-03T01:27:43.953Z,3.90
2018-08-03T01:30:12.373Z,4.17
2018-08-03T01:32:40.843Z,3.90
2018-08-03T01:35:09.274Z,4.20
2018-08-03T01:37:37.716Z,4.20
2018-08-03T01:40:06.503Z,3.90
2018-08-03T01:42:34.885Z,4.30
2018-08-03T01:45:03.289Z,4.33
2018-08-03T01:47:32.133Z,4.27
2018-08-03T01:50:00.502Z,4.50
2018-08-03T01:52:28.637Z,4.17
2018-08-03T01:54:57.030Z,4.17
2018-08-03T01:57:25.430Z,4.57
2018-08-03T01:59:53.794Z,4.50
2018-08-03T02:02:22.230Z,4.30
2018-08-03T02:04:50.621Z,4.57
2018-08-03T02:07:19.002Z,4.30
2018-08-03T02:09:47.360Z,4.60
2018-08-03T02:12:15.737Z,4.47
2018-08-03T02:14:44.210Z,5.30
2018-08-03T02:17:12.688Z,5.00
2018-08-03T02:19:41.077Z,5.13
2018-08-03T02:22:09.485Z,5.40
2018-08-03T02:24:37.883Z,5.67
2018-08-03T02:27:06.401Z,6.10
2018-08-03T02:29:34.777Z,6.33
2018-08-03T02:32:03.146Z,6.40
2018-08-03T02:34:31.535Z,8.00
2018-08-03T02:36:59.941Z,7.77
2018-08-03T02:39:28.343Z,7.90
2018-08-03T02:41:56.753Z,7.53
2018-08-03T02:44:25.160Z,7.87
2018-08-03T02:46:53.545Z,7.10
2018-08-03T02:49:21.966Z,6.53
2018-08-03T02:51:50.358Z,6.57
2018-08-03T02:54:18.736Z,6.20
2018-08-03T02:56:47.157Z,6.50
2018-08-03T02:59:16.136Z,6.70
2018-08-03T03:01:44.517Z,6.83
2018-08-03T03:04:12.901Z,6.40
2018-08-03T03:06:41.305Z,6.53
2018-08-03T03:09:10.997Z,6.43
2018-08-03T03:11:39.358Z,6.50
2018-08-03T03:14:07.842Z,5.47
2018-08-03T03:16:36.434Z,5.10
2018-08-03T03:19:04.902Z,4.90
2018-08-03T03:21:33.310Z,5.37
2018-08-03T03:24:01.702Z,5.40
2018-08-03T03:26:30.119Z,4.97
2018-08-03T03:28:58.548Z,5.03
2018-08-03T03:31:26.946Z,4.93
2018-08-03T03:33:55.288Z,5.57
2018-08-03T03:36:23.702Z,5.40
2018-08-03T03:38:52.074Z,5.93
2018-08-03T03:41:20.409Z,5.40
2018-08-03T03:43:49.313Z,5.87
2018-08-03T03:46:17.670Z,5.50
2018-08-03T03:48:46.047Z,5.47
2018-08-03T03:51:14.472Z,5.40
2018-08-03T03:53:42.857Z,5.60
2018-08-03T03:56:11.373Z,5.20
2018-08-03T03:58:39.800Z,5.50
2018-08-03T04:01:08.213Z,5.53
2018-08-03T04:03:36.624Z,5.60
2018-08-03T04:06:05.006Z,5.10
2018-08-03T04:08:33.385Z,5.40
2018-08-03T04:11:01.911Z,5.10
2018-08-03T04:13:30.362Z,4.97
2018-08-03T04:15:58.792Z,5.20
2018-08-03T04:18:27.162Z,5.00
2018-08-03T04:20:56.474Z,5.33
2018-08-03T04:23:24.945Z,5.70
2018-08-03T04:25:53.354Z,6.33
2018-08-03T04:28:21.792Z,6.10
2018-08-03T04:30:50.134Z,6.03
2018-08-03T04:33:18.534Z,5.13
2018-08-03T04:35:46.685Z,5.50
2018-08-03T04:38:15.144Z,6.00
2018-08-03T04:40:43.574Z,6.00
2018-08-03T04:43:11.967Z,5.97
2018-08-03T04:45:40.389Z,5.90
2018-08-03T04:48:08.769Z,5.23
2018-08-03T04:50:37.145Z,5.50
2018-08-03T04:53:06.430Z,5.53
2018-08-03T04:55:34.801Z,5.23
2018-08-03T04:58:03.240Z,5.10
2018-08-03T05:00:31.616Z,5.27
2018-08-03T05:02:59.702Z,5.10
2018-08-03T05:05:27.829Z,4.87
2018-08-03T05:07:56.209Z,4.80
2018-08-03T05:10:24.605Z,4.97
2018-08-03T05:12:52.973Z,4.77
2018-08-03T05:15:21.414Z,5.20
2018-08-03T05:17:49.801Z,5.33
2018-08-03T05:20:18.245Z,5.47
2018-08-03T05:22:46.603Z,5.43
2018-08-03T05:25:15.025Z,5.53
2018-08-03T05:27:43.406Z,6.07
2018-08-03T05:30:11.850Z,6.57
2018-08-03T05:32:40.229Z,7.57
2018-08-03T05:35:09.182Z,8.60
2018-08-03T05:37:38.235Z,9.40
2018-08-03T05:40:06.825Z,8.03
2018-08-03T05:42:35.299Z,4.00
2018-08-03T05:45:03.762Z,9.40
2018-08-03T05:47:32.155Z,8.67
2018-08-03T05:50:00.684Z,9.07
2018-08-03T05:52:29.898Z,8.27
2018-08-03T05:54:58.391Z,8.77
2018-08-03T05:57:26.869Z,9.10
2018-08-03T05:59:55.591Z,6.27
2018-08-03T06:02:24.050Z,8.03
2018-08-03T06:04:52.659Z,9.23
2018-08-03T06:07:21.038Z,7.87
2018-08-03T06:09:49.453Z,7.70
2018-08-03T06:12:17.863Z,7.97
2018-08-03T06:14:46.285Z,7.37
2018-08-03T06:17:14.676Z,8.17
2018-08-03T06:19:43.049Z,7.97
2018-08-03T06:22:11.463Z,7.80
2018-08-03T06:24:39.994Z,8.00
2018-08-03T06:27:08.426Z,8.90
2018-08-03T06:29:36.820Z,7.77
2018-08-03T06:32:05.891Z,8.40
2018-08-03T06:34:34.249Z,7.90
2018-08-03T06:37:02.621Z,7.73
2018-08-03T06:39:31.060Z,8.10
2018-08-03T06:41:59.444Z,8.30
2018-08-03T06:44:27.880Z,7.63
2018-08-03T06:46:56.381Z,8.43
2018-08-03T06:49:24.733Z,8.30
2018-08-03T06:51:53.077Z,9.13
2018-08-03T06:54:22.144Z,8.40
2018-08-03T06:56:50.572Z,8.70
2018-08-03T06:59:18.966Z,8.47
2018-08-03T07:01:47.474Z,9.77
2018-08-03T07:04:15.866Z,9.40
2018-08-03T07:06:44.052Z,9.03
2018-08-03T07:09:13.502Z,8.90
2018-08-03T07:11:41.905Z,9.17
2018-08-03T07:14:10.297Z,8.20
2018-08-03T07:16:38.702Z,9.60
2018-08-03T07:19:06.861Z,9.37
2018-08-03T07:21:35.212Z,8.13
2018-08-03T07:24:03.666Z,9.27
2018-08-03T07:26:32.082Z,9.20
2018-08-03T07:29:00.493Z,8.73
2018-08-03T07:31:28.936Z,9.43
2018-08-03T07:33:57.321Z,9.57
2018-08-03T07:36:25.700Z,8.60
2018-08-03T07:38:54.047Z,8.93
2018-08-03T07:41:22.521Z,8.87
2018-08-03T07:43:50.934Z,8.50
2018-08-03T07:46:19.845Z,7.40
2018-08-03T07:48:48.213Z,9.33
2018-08-03T07:51:16.673Z,7.83
2018-08-03T07:53:45.053Z,7.60
2018-08-03T07:56:13.453Z,7.80
2018-08-03T07:58:41.858Z,6.23
2018-08-03T08:01:10.756Z,6.37
2018-08-03T08:03:38.837Z,7.03
2018-08-03T08:06:07.234Z,6.47
2018-08-03T08:08:35.321Z,6.47
2018-08-03T08:11:03.736Z,5.60
2018-08-03T08:13:32.110Z,6.07
2018-08-03T08:16:00.499Z,6.27
2018-08-03T08:18:28.902Z,6.33
2018-08-03T08:20:57.261Z,6.63
2018-08-03T08:23:25.652Z,5.70
2018-08-03T08:25:54.133Z,5.37
2018-08-03T08:28:22.503Z,5.53
2018-08-03T08:30:51.161Z,5.23
2018-08-03T08:33:19.325Z,5.60
2018-08-03T08:35:47.730Z,5.10
2018-08-03T08:38:16.121Z,5.47
2018-08-03T08:40:44.629Z,5.70
2018-08-03T08:43:13.051Z,5.67
2018-08-03T08:45:41.410Z,6.77
2018-08-03T08:48:09.846Z,5.00
2018-08-03T08:50:38.301Z,5.17
2018-08-03T08:53:06.785Z,4.70
2018-08-03T08:55:35.165Z,3.97
2018-08-03T08:58:03.581Z,5.07
2018-08-03T09:00:31.936Z,5.90
2018-08-03T09:03:00.945Z,4.70
2018-08-03T09:05:29.322Z,3.50
2018-08-03T09:07:57.704Z,4.73
2018-08-03T09:10:26.078Z,4.60
2018-08-03T09:12:54.525Z,4.90
2018-08-03T09:15:22.964Z,5.57
2018-08-03T09:17:51.374Z,5.37
2018-08-03T09:20:19.842Z,5.13
2018-08-03T09:22:48.263Z,6.00
2018-08-03T09:25:16.726Z,4.17
2018-08-03T09:27:45.096Z,5.23
2018-08-03T09:30:13.487Z,5.20
2018-08-03T09:32:41.977Z,6.50
2018-08-03T09:35:10.390Z,5.43
2018-08-03T09:37:38.846Z,5.37
2018-08-03T09:40:07.227Z,5.30
2018-08-03T09:42:35.615Z,5.07
2018-08-03T09:45:04.717Z,4.90
2018-08-03T09:47:33.229Z,5.17
2018-08-03T09:50:01.690Z,5.27
2018-08-03T09:52:30.133Z,4.50
2018-08-03T09:54:58.505Z,4.07
2018-08-03T09:57:26.906Z,5.43
2018-08-03T09:59:55.345Z,5.50
2018-08-03T10:02:23.765Z,7.00
2018-08-03T10:04:52.145Z,6.90
2018-08-03T10:07:20.595Z,5.50
2018-08-03T10:09:48.945Z,5.40
2018-08-03T10:12:17.361Z,5.00
2018-08-03T10:14:45.525Z,5.23
2018-08-03T10:17:13.904Z,4.03
2018-08-03T10:19:42.270Z,4.33
2018-08-03T10:22:10.661Z,4.67
2018-08-03T10:24:39.013Z,6.03
2018-08-03T10:27:07.389Z,4.43
2018-08-03T10:29:35.809Z,5.67
2018-08-03T10:32:04.301Z,4.20
2018-08-03T10:34:32.677Z,4.23
2018-08-03T10:37:01.061Z,4.00
2018-08-03T10:39:29.545Z,4.20
2018-08-03T10:41:57.937Z,5.30
2018-08-03T10:44:26.331Z,5.20
2018-08-03T10:46:54.420Z,4.57
2018-08-03T10:49:22.818Z,4.10
2018-08-03T10:51:51.198Z,4.67
2018-08-03T10:54:19.579Z,5.37
2018-08-03T10:56:47.980Z,5.10
2018-08-03T10:59:16.341Z,4.37
2018-08-03T11:01:44.858Z,3.37
2018-08-03T11:04:13.305Z,4.53
2018-08-03T11:06:41.767Z,5.80
2018-08-03T11:09:10.325Z,4.50
2018-08-03T11:11:38.865Z,5.10
2018-08-03T11:14:07.381Z,4.67
2018-08-03T11:16:36.417Z,4.47
2018-08-03T11:19:04.898Z,3.23
2018-08-03T11:21:33.265Z,4.90
2018-08-03T11:24:01.707Z,4.60
2018-08-03T11:26:30.018Z,3.83
2018-08-03T11:28:58.076Z,4.67
2018-08-03T11:31:26.479Z,4.80
2018-08-03T11:33:54.833Z,4.90
2018-08-03T11:36:23.214Z,4.80
2018-08-03T11:38:51.617Z,5.37
2018-08-03T11:41:20.097Z,4.60
2018-08-03T11:43:48.506Z,4.90
2018-08-03T11:46:16.886Z,4.70
2018-08-03T11:48:45.368Z,5.70
2018-08-03T11:51:13.802Z,4.20
2018-08-03T11:53:42.164Z,4.50
2018-08-03T11:56:10.604Z,4.33
2018-08-03T11:58:39.013Z,5.90
2018-08-03T12:01:07.398Z,5.40
2018-08-03T12:03:35.858Z,4.10
2018-08-03T12:06:04.286Z,4.77
2018-08-03T12:08:32.786Z,4.47
2018-08-03T12:11:00.912Z,4.23
2018-08-03T12:13:29.276Z,4.40
2018-08-03T12:15:58.202Z,4.10
2018-08-03T12:18:26.589Z,3.70
2018-08-03T12:20:55.202Z,4.10
2018-08-03T12:23:23.605Z,4.57
2018-08-03T12:25:52.034Z,4.07
2018-08-03T12:28:20.426Z,4.90
2018-08-03T12:30:49.709Z,4.00
2018-08-03T12:33:18.182Z,4.20
2018-08-03T12:35:46.594Z,4.43
2018-08-03T12:38:15.023Z,3.97
2018-08-03T12:40:43.479Z,3.80
2018-08-03T12:43:11.904Z,4.90
2018-08-03T12:45:40.414Z,3.63
2018-08-03T12:48:08.868Z,4.00
2018-08-03T12:50:37.263Z,4.47
2018-08-03T12:53:05.750Z,5.00
2018-08-03T12:55:34.957Z,4.40
2018-08-03T12:58:03.369Z,4.10
2018-08-03T13:00:31.794Z,4.43
2018-08-03T13:03:00.195Z,4.33
2018-08-03T13:05:28.579Z,4.17
2018-08-03T13:07:57.122Z,4.43
2018-08-03T13:10:25.349Z,3.80
2018-08-03T13:12:53.697Z,4.20
2018-08-03T13:15:28.757Z,4.70
2018-08-03T13:17:57.188Z,4.20
2018-08-03T13:20:25.552Z,3.90
2018-08-03T13:23:00.198Z,4.30
2018-08-03T13:25:28.587Z,4.10
2018-08-03T13:27:57.101Z,4.30
2018-08-03T13:30:25.614Z,4.30
2018-08-03T13:32:54.092Z,4.63
2018-08-03T13:35:22.550Z,5.17
2018-08-03T13:37:51.530Z,4.80
2018-08-03T13:40:19.994Z,4.20
2018-08-03T13:42:48.634Z,4.30
2018-08-03T13:45:17.096Z,3.90
2018-08-03T13:47:45.505Z,3.20
2018-08-03T13:50:13.959Z,3.97
2018-08-03T13:52:42.454Z,3.67
2018-08-03T13:55:10.896Z,3.90
2018-08-03T13:57:39.344Z,4.33
2018-08-03T14:00:09.353Z,5.10
2018-08-03T14:02:37.745Z,4.77
2018-08-03T14:05:06.860Z,4.90
2018-08-03T14:07:35.269Z,4.17
2018-08-03T14:10:03.764Z,3.40
2018-08-03T14:12:32.201Z,4.20
2018-08-03T14:15:00.697Z,4.30
2018-08-03T14:17:29.129Z,4.33
2018-08-03T14:19:57.506Z,4.10
2018-08-03T14:22:25.967Z,3.83
2018-08-03T14:24:54.365Z,3.80
2018-08-03T14:27:22.929Z,3.90
2018-08-03T14:29:51.405Z,3.60
2018-08-03T14:32:19.969Z,4.00
2018-08-03T14:34:48.548Z,3.30
2018-08-03T14:37:23.606Z,4.20
2018-08-03T14:39:53.240Z,4.50
2018-08-03T14:42:22.217Z,3.70
2018-08-03T14:44:50.800Z,4.30
2018-08-03T14:47:19.397Z,4.03
2018-08-03T14:49:47.868Z,4.23
2018-08-03T14:52:16.428Z,3.73
2018-08-03T14:54:44.910Z,3.80
2018-08-03T14:57:13.369Z,4.10
2018-08-03T14:59:41.557Z,4.07
2018-08-03T15:02:09.993Z,4.07
2018-08-03T15:04:38.436Z,3.67
2018-08-03T15:07:06.837Z,4.00
2018-08-03T15:09:35.239Z,3.83
2018-08-03T15:12:03.799Z,4.60
2018-08-03T15:14:32.226Z,3.63
2018-08-03T15:17:00.826Z,3.50
2018-08-03T15:19:29.453Z,4.20
2018-08-03T15:21:58.226Z,3.83
2018-08-03T15:24:27.298Z,3.47
2018-08-03T15:26:55.810Z,3.60
2018-08-03T15:29:24.201Z,3.40
2018-08-03T15:31:52.571Z,3.90
2018-08-03T15:34:21.105Z,3.60
2018-08-03T15:36:49.948Z,3.70
2018-08-03T15:39:18.357Z,3.40
2018-08-03T15:41:49.577Z,3.80
2018-08-03T15:44:18.098Z,4.30
2018-08-03T15:46:46.469Z,3.50
2018-08-03T15:49:14.934Z,3.20
2018-08-03T15:51:43.419Z,3.30
2018-08-03T15:54:11.817Z,3.53
2018-08-03T15:56:40.218Z,3.23
2018-08-03T15:59:08.594Z,3.70
2018-08-03T16:01:37.079Z,3.73
2018-08-03T16:04:05.485Z,3.40
2018-08-03T16:06:33.917Z,3.67
2018-08-03T16:09:02.325Z,3.60
2018-08-03T16:11:30.809Z,3.70
2018-08-03T16:13:59.225Z,3.50
2018-08-03T16:16:27.650Z,3.90
2018-08-03T16:18:56.151Z,3.63
2018-08-03T16:21:24.458Z,3.63
2018-08-03T16:23:52.814Z,3.70
2018-08-03T16:26:21.001Z,3.33
2018-08-03T16:28:49.385Z,3.40
2018-08-03T16:31:18.213Z,3.60
2018-08-03T16:33:46.610Z,3.90
2018-08-03T16:36:15.128Z,3.57
2018-08-03T16:38:43.516Z,3.53
2018-08-03T16:41:11.963Z,3.83
2018-08-03T16:43:40.533Z,3.80
2018-08-03T16:46:08.893Z,3.60
2018-08-03T16:48:37.365Z,3.53
2018-08-03T16:51:05.785Z,3.70
2018-08-03T16:53:34.222Z,3.30
2018-08-03T16:56:02.649Z,3.50
2018-08-03T16:58:31.062Z,3.73
2018-08-03T17:00:59.501Z,3.40
2018-08-03T17:03:27.881Z,3.60
2018-08-03T17:05:56.320Z,3.53
2018-08-03T17:08:24.673Z,3.70
2018-08-03T17:10:53.199Z,3.43
2018-08-03T17:13:21.644Z,3.57
2018-08-03T17:15:50.140Z,3.60
2018-08-03T17:18:18.577Z,3.53
2018-08-03T17:20:46.970Z,3.30
2018-08-03T17:23:15.472Z,3.50
2018-08-03T17:25:43.833Z,3.60
2018-08-03T17:28:12.368Z,3.40
2018-08-03T17:30:40.795Z,3.40
2018-08-03T17:33:09.182Z,3.13
2018-08-03T17:35:37.610Z,3.37
2018-08-03T17:38:06.060Z,3.40
2018-08-03T17:40:34.530Z,3.20
2018-08-03T17:43:02.941Z,3.60
2018-08-03T17:45:31.412Z,3.10
2018-08-03T17:47:59.797Z,3.03
2018-08-03T17:50:28.227Z,3.20
2018-08-03T17:52:56.709Z,2.80
2018-08-03T17:55:25.147Z,3.10
2018-08-03T17:57:53.574Z,3.00
2018-08-03T18:00:21.971Z,3.33
2018-08-03T18:02:51.003Z,3.27
2018-08-03T18:05:19.390Z,3.20
2018-08-03T18:07:47.834Z,3.30
2018-08-03T18:10:16.217Z,3.23
2018-08-03T18:12:44.655Z,3.10
2018-08-03T18:15:14.029Z,2.70
2018-08-03T18:17:42.417Z,3.10
2018-08-03T18:20:10.817Z,3.00
2018-08-03T18:22:39.225Z,3.00
2018-08-03T18:25:07.669Z,3.17
2018-08-03T18:27:36.049Z,3.10
2018-08-03T18:30:05.295Z,3.10
2018-08-03T18:32:33.674Z,3.00
2018-08-03T18:35:02.099Z,3.20
2018-08-03T18:37:30.578Z,3.10
2018-08-03T18:39:58.948Z,3.20
2018-08-03T18:42:27.414Z,3.00
2018-08-03T18:44:55.810Z,2.97
2018-08-03T18:47:24.170Z,2.60
2018-08-03T18:49:52.610Z,2.80
2018-08-03T18:52:21.120Z,2.90
2018-08-03T18:54:49.636Z,2.90
2018-08-03T18:57:18.018Z,2.73
2018-08-03T18:59:46.417Z,2.90
2018-08-03T19:02:14.882Z,2.70
2018-08-03T19:04:43.287Z,3.00
2018-08-03T19:07:11.633Z,2.90
2018-08-03T19:09:40.725Z,2.70
2018-08-03T19:12:09.118Z,2.97
2018-08-03T19:14:37.558Z,2.97
2018-08-03T19:17:06.026Z,2.63
2018-08-03T19:19:34.469Z,2.93
2018-08-03T19:22:03.563Z,2.87
2018-08-03T19:24:31.969Z,2.63
2018-08-03T19:27:00.388Z,2.80
2018-08-03T19:29:28.738Z,2.50
2018-08-03T19:31:57.408Z,3.00
2018-08-03T19:34:25.784Z,2.60
2018-08-03T19:36:53.975Z,2.70
2018-08-03T19:39:22.333Z,2.63
2018-08-03T19:41:51.145Z,2.65
2018-08-03T19:44:19.506Z,2.53
2018-08-03T19:46:48.342Z,2.67
2018-08-03T19:49:16.715Z,2.60
2018-08-03T19:51:45.105Z,2.80
2018-08-03T19:54:13.481Z,2.80
2018-08-03T19:56:41.893Z,2.50
2018-08-03T19:59:10.297Z,2.70
2018-08-03T20:01:38.794Z,2.20
2018-08-03T20:04:07.580Z,2.33
2018-08-03T20:06:36.250Z,2.47
2018-08-03T20:09:07.498Z,2.47
2018-08-03T20:11:35.893Z,2.83
2018-08-03T20:14:04.337Z,2.70
2018-08-03T20:16:32.737Z,2.50
2018-08-03T20:19:01.123Z,2.47
2018-08-03T20:21:29.499Z,2.40
2018-08-03T20:23:58.549Z,2.37
2018-08-03T20:26:26.970Z,2.50
2018-08-03T20:28:55.348Z,2.40
2018-08-03T20:31:24.083Z,2.30
2018-08-03T20:33:52.567Z,2.50
2018-08-03T20:36:21.689Z,2.40
2018-08-03T20:38:50.098Z,2.17
2018-08-03T20:41:18.469Z,2.40
2018-08-03T20:43:47.136Z,2.40
2018-08-03T20:46:15.258Z,2.30
2018-08-03T20:48:43.709Z,2.40
2018-08-03T20:51:12.137Z,2.40
2018-08-03T20:53:40.546Z,2.20
2018-08-03T20:56:08.915Z,2.10
2018-08-03T20:58:37.342Z,2.20
2018-08-03T21:01:05.738Z,2.37
2018-08-03T21:03:34.199Z,2.30
2018-08-03T21:06:02.669Z,2.20
2018-08-03T21:08:31.048Z,2.40
2018-08-03T21:10:59.429Z,2.40
2018-08-03T21:13:27.841Z,2.27
2018-08-03T21:15:56.954Z,2.30
2018-08-03T21:18:25.383Z,2.53
2018-08-03T21:20:54.500Z,2.20
2018-08-03T21:23:22.922Z,2.23
2018-08-03T21:25:51.375Z,2.47
2018-08-03T21:28:19.813Z,2.17
2018-08-03T21:30:48.152Z,2.37
2018-08-03T21:33:16.534Z,2.60
2018-08-03T21:35:44.965Z,2.63
2018-08-03T21:38:14.267Z,2.40
2018-08-03T21:40:42.872Z,2.10
2018-08-03T21:43:11.576Z,2.50
2018-08-03T21:45:40.030Z,2.30
2018-08-03T21:48:08.444Z,2.20
2018-08-03T21:50:36.780Z,2.40
2018-08-03T21:53:05.205Z,2.40
2018-08-03T21:55:33.581Z,2.57
2018-08-03T21:58:01.973Z,2.60
2018-08-03T22:00:30.181Z,2.30
2018-08-03T22:02:58.521Z,2.40
2018-08-03T22:05:27.428Z,2.50
2018-08-03T22:07:55.684Z,2.33
2018-08-03T22:10:24.053Z,2.40
2018-08-03T22:12:52.450Z,2.20
2018-08-03T22:15:20.840Z,2.43
2018-08-03T22:17:49.261Z,2.27
2018-08-03T22:20:17.675Z,2.30
2018-08-03T22:22:46.093Z,2.40
2018-08-03T22:25:14.380Z,2.40
2018-08-03T22:27:42.793Z,2.23
2018-08-03T22:30:11.155Z,2.50
2018-08-03T22:32:39.660Z,2.20
2018-08-03T22:35:07.884Z,2.23
2018-08-03T22:37:36.282Z,2.50
2018-08-03T22:40:04.785Z,2.80
2018-08-03T22:42:33.373Z,2.10
2018-08-03T22:45:01.761Z,2.40
2018-08-03T22:47:30.180Z,2.70
2018-08-03T22:49:58.560Z,2.33
2018-08-03T22:52:26.928Z,2.50
2018-08-03T22:54:55.388Z,2.27
2018-08-03T22:57:23.743Z,2.53
2018-08-03T22:59:52.161Z,2.60
2018-08-03T23:02:20.553Z,2.43
2018-08-03T23:04:49.036Z,2.70
2018-08-03T23:07:17.476Z,2.60
2018-08-03T23:09:45.900Z,2.73
2018-08-03T23:12:14.301Z,2.50
2018-08-03T23:14:42.676Z,2.70
2018-08-03T23:17:11.095Z,2.60
2018-08-03T23:19:39.468Z,2.90
2018-08-03T23:22:07.901Z,2.73
2018-08-03T23:24:36.264Z,2.63
2018-08-03T23:27:04.681Z,2.90
2018-08-03T23:29:33.098Z,2.67
2018-08-03T23:32:01.484Z,2.80
2018-08-03T23:34:29.902Z,2.70
2018-08-03T23:36:58.338Z,2.90
2018-08-03T23:39:26.729Z,3.00
2018-08-03T23:41:55.089Z,2.33
2018-08-03T23:44:23.501Z,2.97
2018-08-03T23:46:51.865Z,2.63
2018-08-03T23:49:20.263Z,2.90
2018-08-03T23:51:48.772Z,2.70
2018-08-03T23:54:17.129Z,2.93
2018-08-03T23:56:45.501Z,2.97
2018-08-03T23:59:13.972Z,2.70
